createdAt,value
2023-03-11T00:00:13.352Z,3.03
2023-03-11T00:02:40.986Z,2.10
2023-03-11T00:05:08.432Z,5.38
2023-03-11T00:07:34.830Z,0.93
2023-03-11T00:10:01.183Z,3.25
2023-03-11T00:12:27.530Z,12.65
2023-03-11T00:14:53.911Z,1.55
2023-03-11T00:17:20.250Z,2.60
2023-03-11T00:19:46.934Z,4.82
2023-03-11T00:22:13.284Z,4.57
2023-03-11T00:24:39.605Z,3.80
2023-03-11T00:27:06.858Z,5.45
2023-03-11T00:29:33.210Z,6.10
2023-03-11T00:31:59.527Z,6.05
2023-03-11T00:34:25.931Z,1.83
2023-03-11T00:36:52.268Z,6.43
2023-03-11T00:39:18.609Z,3.42
2023-03-11T00:41:44.998Z,5.63
2023-03-11T00:44:12.530Z,5.65
2023-03-11T00:46:38.839Z,3.17
2023-03-11T00:49:05.345Z,1.48
2023-03-11T00:51:34.138Z,3.90
2023-03-11T00:54:01.326Z,5.57
2023-03-11T00:56:27.686Z,5.97
2023-03-11T00:58:54.050Z,1.90
2023-03-11T01:01:20.690Z,3.58
2023-03-11T01:03:47.091Z,4.72
2023-03-11T01:06:13.638Z,3.60
2023-03-11T01:08:40.035Z,4.57
2023-03-11T01:11:06.994Z,4.85
2023-03-11T01:13:33.761Z,5.72
2023-03-11T01:16:00.226Z,2.88
2023-03-11T01:18:26.940Z,4.47
2023-03-11T01:20:53.453Z,3.80
2023-03-11T01:23:20.288Z,4.80
2023-03-11T01:25:46.597Z,5.53
2023-03-11T01:28:13.357Z,4.40
2023-03-11T01:30:40.351Z,4.60
2023-03-11T01:33:07.613Z,5.30
2023-03-11T01:35:35.397Z,3.90
2023-03-11T01:38:01.754Z,7.50
2023-03-11T01:40:38.489Z,6.50
2023-03-11T01:43:06.470Z,4.75
2023-03-11T01:45:35.561Z,5.38
2023-03-11T01:48:02.049Z,4.18
2023-03-11T01:50:31.614Z,1.17
2023-03-11T01:52:58.026Z,3.95
2023-03-11T01:55:24.481Z,2.00
2023-03-11T01:57:51.846Z,4.47
2023-03-11T02:00:18.396Z,5.35
2023-03-11T02:02:47.609Z,9.70
2023-03-11T02:05:14.303Z,5.47
2023-03-11T02:07:40.864Z,5.20
2023-03-11T02:10:07.591Z,6.95
2023-03-11T02:12:35.211Z,5.82
2023-03-11T02:15:01.949Z,4.78
2023-03-11T02:17:28.447Z,2.47
2023-03-11T02:19:54.729Z,3.90
2023-03-11T02:22:21.061Z,4.07
2023-03-11T02:24:55.290Z,5.65
2023-03-11T02:27:22.090Z,4.45
2023-03-11T02:29:50.024Z,2.05
2023-03-11T02:32:16.644Z,3.03
2023-03-11T02:34:43.083Z,4.30
2023-03-11T02:37:13.664Z,5.95
2023-03-11T02:39:41.858Z,3.28
2023-03-11T02:42:12.097Z,4.13
2023-03-11T02:44:39.528Z,6.38
2023-03-11T02:47:06.440Z,6.18
2023-03-11T02:49:32.920Z,6.32
2023-03-11T02:51:59.228Z,6.38
2023-03-11T02:54:25.648Z,12.90
2023-03-11T02:56:51.950Z,4.55
2023-03-11T02:59:18.283Z,4.38
2023-03-11T03:01:44.825Z,3.60
2023-03-11T03:04:11.495Z,2.63
2023-03-11T03:06:37.998Z,2.95
2023-03-11T03:09:04.409Z,2.42
2023-03-11T03:11:30.738Z,6.82
2023-03-11T03:13:57.117Z,4.90
2023-03-11T03:16:23.485Z,1.85
2023-03-11T03:18:49.838Z,3.35
2023-03-11T03:21:16.142Z,6.93
2023-03-11T03:23:42.510Z,1.30
2023-03-11T03:26:12.637Z,5.13
2023-03-11T03:28:38.982Z,5.30
2023-03-11T03:31:06.710Z,3.95
2023-03-11T03:33:33.135Z,3.25
2023-03-11T03:35:59.521Z,1.73
2023-03-11T03:38:25.910Z,3.75
2023-03-11T03:40:52.219Z,2.53
2023-03-11T03:43:18.605Z,3.72
2023-03-11T03:45:44.944Z,5.60
2023-03-11T03:48:11.248Z,2.20
2023-03-11T03:50:39.140Z,2.80
2023-03-11T03:53:06.239Z,3.13
2023-03-11T03:55:32.567Z,4.88
2023-03-11T03:57:58.966Z,2.45
2023-03-11T04:00:25.401Z,3.55
2023-03-11T04:02:51.702Z,4.60
2023-03-11T04:05:18.145Z,6.57
2023-03-11T04:07:44.535Z,1.45
2023-03-11T04:10:13.246Z,1.20
2023-03-11T04:12:39.577Z,4.25
2023-03-11T04:15:06.332Z,6.95
2023-03-11T04:17:32.673Z,1.98
2023-03-11T04:19:58.974Z,3.08
2023-03-11T04:22:25.371Z,4.72
2023-03-11T04:24:51.683Z,1.38
2023-03-11T04:27:18.068Z,3.25
2023-03-11T04:29:44.423Z,4.15
2023-03-11T04:32:10.788Z,6.95
2023-03-11T04:34:37.216Z,3.42
2023-03-11T04:37:03.563Z,3.10
2023-03-11T04:39:30.031Z,6.53
2023-03-11T04:41:57.025Z,2.15
2023-03-11T04:44:23.437Z,3.10
2023-03-11T04:46:49.784Z,4.80
2023-03-11T04:49:16.184Z,3.20
2023-03-11T04:51:42.706Z,3.45
2023-03-11T04:54:09.246Z,4.70
2023-03-11T04:56:35.675Z,3.35
2023-03-11T04:59:01.996Z,1.80
2023-03-11T05:01:28.450Z,3.20
2023-03-11T05:03:54.904Z,3.42
2023-03-11T05:06:21.218Z,2.05
2023-03-11T05:08:47.526Z,2.65
2023-03-11T05:11:13.992Z,0.43
2023-03-11T05:13:40.378Z,4.32
2023-03-11T05:16:06.951Z,2.60
2023-03-11T05:18:33.286Z,3.38
2023-03-11T05:20:59.699Z,2.35
2023-03-11T05:23:26.025Z,1.85
2023-03-11T05:25:52.431Z,2.72
2023-03-11T05:28:18.804Z,1.85
2023-03-11T05:30:45.118Z,2.65
2023-03-11T05:33:11.465Z,2.78
2023-03-11T05:35:37.807Z,3.58
2023-03-11T05:38:04.160Z,3.08
2023-03-11T05:40:30.462Z,4.97
2023-03-11T05:42:56.761Z,2.05
2023-03-11T05:45:23.127Z,3.10
2023-03-11T05:47:49.532Z,2.15
2023-03-11T05:50:15.899Z,2.17
2023-03-11T05:52:42.294Z,2.47
2023-03-11T05:55:09.946Z,2.47
2023-03-11T05:57:36.285Z,1.13
2023-03-11T06:00:05.587Z,3.03
2023-03-11T06:02:31.926Z,1.55
2023-03-11T06:04:58.314Z,3.72
2023-03-11T06:07:24.768Z,4.65
2023-03-11T06:09:51.194Z,3.55
2023-03-11T06:12:17.993Z,2.13
2023-03-11T06:14:44.341Z,1.35
2023-03-11T06:17:10.788Z,3.92
2023-03-11T06:19:37.164Z,1.45
2023-03-11T06:22:03.474Z,2.85
2023-03-11T06:24:29.832Z,3.35
2023-03-11T06:26:56.207Z,3.78
2023-03-11T06:29:24.446Z,4.63
2023-03-11T06:31:50.841Z,2.20
2023-03-11T06:34:17.226Z,3.97
2023-03-11T06:36:43.690Z,2.22
2023-03-11T06:39:12.326Z,11.10
2023-03-11T06:41:38.653Z,5.88
2023-03-11T06:44:05.138Z,4.35
2023-03-11T06:46:31.539Z,2.95
2023-03-11T06:48:58.105Z,2.63
2023-03-11T06:51:24.557Z,4.53
2023-03-11T06:53:53.782Z,5.45
2023-03-11T06:56:21.159Z,6.32
2023-03-11T06:58:48.063Z,5.88
2023-03-11T07:01:15.695Z,3.80
2023-03-11T07:03:42.460Z,7.20
2023-03-11T07:06:17.765Z,9.88
2023-03-11T07:08:45.825Z,4.78
2023-03-11T07:11:17.712Z,6.68
2023-03-11T07:13:44.577Z,5.13
2023-03-11T07:16:15.600Z,7.45
2023-03-11T07:18:45.048Z,8.20
2023-03-11T07:21:12.548Z,6.25
2023-03-11T07:23:39.055Z,6.75
2023-03-11T07:26:07.917Z,5.22
2023-03-11T07:28:34.239Z,6.43
2023-03-11T07:31:00.766Z,5.32
2023-03-11T07:33:27.318Z,5.45
2023-03-11T07:35:54.030Z,6.28
2023-03-11T07:38:20.357Z,3.83
2023-03-11T07:40:46.919Z,3.70
2023-03-11T07:43:13.405Z,11.30
2023-03-11T07:45:39.881Z,5.75
2023-03-11T07:48:06.483Z,8.35
2023-03-11T07:50:32.783Z,7.05
2023-03-11T07:52:59.104Z,4.78
2023-03-11T07:55:25.496Z,5.95
2023-03-11T07:57:52.134Z,5.60
2023-03-11T08:00:19.234Z,4.18
2023-03-11T08:02:45.605Z,17.63
2023-03-11T08:05:12.188Z,5.35
2023-03-11T08:07:38.577Z,6.53
2023-03-11T08:10:05.198Z,4.88
2023-03-11T08:12:31.550Z,3.67
2023-03-11T08:14:58.005Z,7.75
2023-03-11T08:17:24.441Z,4.07
2023-03-11T08:19:50.827Z,6.43
2023-03-11T08:22:17.238Z,3.38
2023-03-11T08:24:43.654Z,5.05
2023-03-11T08:27:10.153Z,4.45
2023-03-11T08:29:36.565Z,4.93
2023-03-11T08:32:03.701Z,4.90
2023-03-11T08:34:29.998Z,4.43
2023-03-11T08:36:56.579Z,6.22
2023-03-11T08:39:23.928Z,3.47
2023-03-11T08:41:50.286Z,8.20
2023-03-11T08:44:16.637Z,4.55
2023-03-11T08:46:42.989Z,3.90
2023-03-11T08:49:09.910Z,1.45
2023-03-11T08:51:36.559Z,6.45
2023-03-11T08:54:03.577Z,1.20
2023-03-11T08:56:30.202Z,3.05
2023-03-11T08:58:56.599Z,5.10
2023-03-11T09:01:23.700Z,6.43
2023-03-11T09:03:50.234Z,1.63
2023-03-11T09:06:17.666Z,5.88
2023-03-11T09:08:44.836Z,5.10
2023-03-11T09:11:13.569Z,3.90
2023-03-11T09:13:41.093Z,3.85
2023-03-11T09:16:09.783Z,3.78
2023-03-11T09:18:36.185Z,5.95
2023-03-11T09:21:02.565Z,3.30
2023-03-11T09:23:29.011Z,4.72
2023-03-11T09:25:55.334Z,5.32
2023-03-11T09:28:21.721Z,3.70
2023-03-11T09:30:48.038Z,8.43
2023-03-11T09:33:14.561Z,2.55
2023-03-11T09:35:40.982Z,3.35
2023-03-11T09:38:07.418Z,2.80
2023-03-11T09:40:52.127Z,1.95
2023-03-11T09:43:56.885Z,8.68
2023-03-11T09:46:34.448Z,1.83
2023-03-11T09:49:06.785Z,3.00
2023-03-11T09:51:36.141Z,5.40
2023-03-11T09:54:09.443Z,3.25
2023-03-11T09:56:36.077Z,3.08
2023-03-11T09:59:05.625Z,2.40
2023-03-11T10:01:37.484Z,4.35
2023-03-11T10:04:08.490Z,3.25
2023-03-11T10:06:35.142Z,3.75
2023-03-11T10:09:01.482Z,5.90
2023-03-11T10:11:36.717Z,2.65
2023-03-11T10:14:08.794Z,4.55
2023-03-11T10:16:42.925Z,1.50
2023-03-11T10:19:15.692Z,7.28
2023-03-11T10:22:06.669Z,2.70
2023-03-11T10:24:49.439Z,5.70
2023-03-11T10:27:19.673Z,2.53
2023-03-11T10:29:55.093Z,2.28
2023-03-11T10:32:27.470Z,5.45
2023-03-11T10:35:04.165Z,2.22
2023-03-11T10:37:48.044Z,1.38
2023-03-11T10:40:35.892Z,3.97
2023-03-11T10:43:03.944Z,4.10
2023-03-11T10:45:36.548Z,4.47
2023-03-11T10:48:03.017Z,5.53
2023-03-11T10:50:36.404Z,4.50
2023-03-11T10:53:07.977Z,5.90
2023-03-11T10:55:34.921Z,4.63
2023-03-11T10:58:27.402Z,1.38
2023-03-11T11:01:21.655Z,1.98
2023-03-11T11:03:50.038Z,2.13
2023-03-11T11:06:19.523Z,3.97
2023-03-11T11:08:46.224Z,2.78
2023-03-11T11:11:22.768Z,6.85
2023-03-11T11:13:58.852Z,4.90
2023-03-11T11:16:25.337Z,5.25
2023-03-11T11:18:58.687Z,2.67
2023-03-11T11:21:30.979Z,2.50
2023-03-11T11:24:16.658Z,4.85
2023-03-11T11:26:43.173Z,4.15
2023-03-11T11:29:09.545Z,2.92
2023-03-11T11:31:39.932Z,5.03
2023-03-11T11:34:24.886Z,2.90
2023-03-11T11:36:51.309Z,5.72
2023-03-11T11:39:20.095Z,1.80
2023-03-11T11:41:48.741Z,7.40
2023-03-11T11:44:17.902Z,3.60
2023-03-11T11:47:06.337Z,4.63
2023-03-11T11:49:34.622Z,1.95
2023-03-11T11:52:13.225Z,2.17
2023-03-11T11:54:39.521Z,2.78
2023-03-11T11:57:11.094Z,2.78
2023-03-11T11:59:37.602Z,4.13
2023-03-11T12:02:05.078Z,3.30
2023-03-11T12:04:37.823Z,4.18
2023-03-11T12:07:16.418Z,2.58
2023-03-11T12:09:48.710Z,1.95
2023-03-11T12:12:22.814Z,2.35
2023-03-11T12:15:07.697Z,1.63
2023-03-11T12:17:36.771Z,1.77
2023-03-11T12:20:08.638Z,2.47
2023-03-11T12:22:51.467Z,2.88
2023-03-11T12:25:22.579Z,3.50
2023-03-11T12:27:55.843Z,3.60
2023-03-11T12:30:27.905Z,1.77
2023-03-11T12:32:57.527Z,1.50
2023-03-11T12:35:31.496Z,1.38
2023-03-11T12:38:04.037Z,2.58
2023-03-11T12:40:46.667Z,5.30
2023-03-11T12:43:24.917Z,2.90
2023-03-11T12:45:52.177Z,0.75
2023-03-11T12:48:27.582Z,3.25
2023-03-11T12:50:54.605Z,2.33
2023-03-11T12:53:21.227Z,5.30
2023-03-11T12:56:10.484Z,5.38
2023-03-11T12:58:40.812Z,4.22
2023-03-11T13:01:13.836Z,1.33
2023-03-11T13:03:46.087Z,2.17
2023-03-11T13:06:21.489Z,3.30
2023-03-11T13:08:51.858Z,1.50
2023-03-11T13:11:33.540Z,4.93
2023-03-11T13:14:08.726Z,5.68
2023-03-11T13:16:36.079Z,5.47
2023-03-11T13:19:22.475Z,2.40
2023-03-11T13:24:35.033Z,3.67
2023-03-11T13:27:04.413Z,5.30
2023-03-11T13:29:44.024Z,1.55
2023-03-11T13:32:12.667Z,4.18
2023-03-11T13:34:57.637Z,4.43
2023-03-11T13:37:44.243Z,3.63
2023-03-11T13:40:16.653Z,4.82
2023-03-11T13:42:49.890Z,3.47
2023-03-11T13:45:27.474Z,2.60
2023-03-11T13:47:57.214Z,4.40
2023-03-11T13:50:30.003Z,2.17
2023-03-11T13:52:59.699Z,3.17
2023-03-11T13:55:55.522Z,3.17
2023-03-11T13:58:23.681Z,2.97
2023-03-11T14:00:53.895Z,7.35
2023-03-11T14:03:22.238Z,4.65
2023-03-11T14:05:56.921Z,4.57
2023-03-11T14:08:32.884Z,3.92
2023-03-11T14:11:00.379Z,4.57
2023-03-11T14:13:31.546Z,5.32
2023-03-11T14:16:04.071Z,4.13
2023-03-11T14:18:33.569Z,6.93
2023-03-11T14:21:00.912Z,2.80
2023-03-11T14:23:30.053Z,4.15
2023-03-11T14:26:00.424Z,2.80
2023-03-11T14:28:28.248Z,3.70
2023-03-11T14:31:01.328Z,5.20
2023-03-11T14:33:28.243Z,5.10
2023-03-11T14:35:56.911Z,4.65
2023-03-11T14:38:25.027Z,2.05
2023-03-11T14:41:02.055Z,2.83
2023-03-11T14:43:32.263Z,1.50
2023-03-11T14:45:59.443Z,4.97
2023-03-11T14:48:29.223Z,5.45
2023-03-11T14:50:57.613Z,4.97
2023-03-11T14:53:36.029Z,4.10
2023-03-11T14:56:07.315Z,6.55
2023-03-11T14:58:43.066Z,3.53
2023-03-11T15:01:21.705Z,4.75
2023-03-11T15:03:50.688Z,6.03
2023-03-11T15:06:22.570Z,1.08
2023-03-11T15:08:55.035Z,3.55
2023-03-11T15:11:24.442Z,4.55
2023-03-11T15:13:55.194Z,5.45
2023-03-11T15:16:23.284Z,5.25
2023-03-11T15:18:49.825Z,8.98
2023-03-11T15:21:17.955Z,2.50
2023-03-11T15:24:10.404Z,2.28
2023-03-11T15:26:38.279Z,3.45
2023-03-11T15:29:13.021Z,1.55
2023-03-11T15:31:40.279Z,3.30
2023-03-11T15:34:18.852Z,1.73
2023-03-11T15:36:55.461Z,2.13
2023-03-11T15:39:26.597Z,2.63
2023-03-11T15:42:02.111Z,4.47
2023-03-11T15:44:28.462Z,1.83
2023-03-11T15:46:54.841Z,2.55
2023-03-11T15:49:21.268Z,3.28
2023-03-11T15:51:47.642Z,5.82
2023-03-11T15:54:13.954Z,2.67
2023-03-11T15:56:40.898Z,2.65
2023-03-11T15:59:11.194Z,4.00
2023-03-11T16:01:37.501Z,2.88
2023-03-11T16:04:04.017Z,4.63
2023-03-11T16:06:30.416Z,3.65
2023-03-11T16:08:56.762Z,3.95
2023-03-11T16:11:23.136Z,3.17
2023-03-11T16:13:49.547Z,3.80
2023-03-11T16:16:17.139Z,5.95
2023-03-11T16:18:43.494Z,4.65
2023-03-11T16:21:15.546Z,7.40
2023-03-11T16:23:51.631Z,6.00
2023-03-11T16:26:18.913Z,3.55
2023-03-11T16:28:45.278Z,7.35
2023-03-11T16:31:11.713Z,2.03
2023-03-11T16:33:38.089Z,6.70
2023-03-11T16:36:05.239Z,9.07
2023-03-11T16:38:31.735Z,5.30
2023-03-11T16:41:01.938Z,3.60
2023-03-11T16:43:29.530Z,1.10
2023-03-11T16:45:56.087Z,4.35
2023-03-11T16:48:22.955Z,4.57
2023-03-11T16:50:49.328Z,5.95
2023-03-11T16:53:17.495Z,5.30
2023-03-11T16:55:47.106Z,1.02
2023-03-11T16:58:14.355Z,6.18
2023-03-11T17:00:41.909Z,3.63
2023-03-11T17:03:10.955Z,7.32
2023-03-11T17:05:37.323Z,6.00
2023-03-11T17:08:04.398Z,2.83
2023-03-11T17:10:36.239Z,2.35
2023-03-11T17:13:02.605Z,4.88
2023-03-11T17:15:28.947Z,1.92
2023-03-11T17:17:55.313Z,8.52
2023-03-11T17:20:21.888Z,4.55
2023-03-11T17:22:48.368Z,2.33
2023-03-11T17:25:14.977Z,6.75
2023-03-11T17:27:41.434Z,5.72
2023-03-11T17:30:08.203Z,3.85
2023-03-11T17:32:34.714Z,1.73
2023-03-11T17:35:01.368Z,4.47
2023-03-11T17:37:27.663Z,5.15
2023-03-11T17:39:54.101Z,3.05
2023-03-11T17:42:20.552Z,5.65
2023-03-11T17:44:51.886Z,7.30
2023-03-11T17:47:19.939Z,7.80
2023-03-11T17:49:46.818Z,8.18
2023-03-11T17:52:13.215Z,4.60
2023-03-11T17:54:39.748Z,7.40
2023-03-11T17:57:06.289Z,4.22
2023-03-11T17:59:32.593Z,5.05
2023-03-11T18:01:58.955Z,4.82
2023-03-11T18:04:25.343Z,4.63
2023-03-11T18:06:53.406Z,3.42
2023-03-11T18:09:19.763Z,4.35
2023-03-11T18:11:47.065Z,4.43
2023-03-11T18:14:13.432Z,3.40
2023-03-11T18:16:40.052Z,4.72
2023-03-11T18:19:06.450Z,3.97
2023-03-11T18:21:32.919Z,3.53
2023-03-11T18:24:00.488Z,7.75
2023-03-11T18:26:27.886Z,5.07
2023-03-11T18:28:55.179Z,8.02
2023-03-11T18:31:22.761Z,7.30
2023-03-11T18:33:50.614Z,5.00
2023-03-11T18:36:16.944Z,4.43
2023-03-11T18:38:43.518Z,5.38
2023-03-11T18:41:10.249Z,5.82
2023-03-11T18:43:36.721Z,4.95
2023-03-11T18:46:06.559Z,2.70
2023-03-11T18:48:33.004Z,6.25
2023-03-11T18:50:59.357Z,7.07
2023-03-11T18:53:25.914Z,3.50
2023-03-11T18:55:52.726Z,5.03
2023-03-11T18:58:19.441Z,3.70
2023-03-11T19:00:46.080Z,3.65
2023-03-11T19:03:12.446Z,2.90
2023-03-11T19:05:38.757Z,5.18
2023-03-11T19:08:05.269Z,4.68
2023-03-11T19:10:31.736Z,5.60
2023-03-11T19:12:58.172Z,5.35
2023-03-11T19:15:24.598Z,4.10
2023-03-11T19:18:04.325Z,7.00
2023-03-11T19:20:32.532Z,6.15
2023-03-11T19:22:58.908Z,3.92
2023-03-11T19:25:27.795Z,3.40
2023-03-11T19:27:54.646Z,4.20
2023-03-11T19:30:21.165Z,10.63
2023-03-11T19:32:47.826Z,27.23
2023-03-11T19:35:14.396Z,31.10
2023-03-11T19:37:40.948Z,27.05
2023-03-11T19:40:09.720Z,19.52
2023-03-11T19:42:37.433Z,11.70
2023-03-11T19:45:04.025Z,11.95
2023-03-11T19:47:30.491Z,13.00
2023-03-11T19:49:56.826Z,9.68
2023-03-11T19:52:23.367Z,7.38
2023-03-11T19:54:50.268Z,8.13
2023-03-11T19:57:17.080Z,10.93
2023-03-11T19:59:43.521Z,13.23
2023-03-11T20:02:13.360Z,7.13
2023-03-11T20:04:42.975Z,11.02
2023-03-11T20:07:09.800Z,9.00
2023-03-11T20:09:36.418Z,11.52
2023-03-11T20:12:02.870Z,11.60
2023-03-11T20:14:29.324Z,10.98
2023-03-11T20:16:55.831Z,14.90
2023-03-11T20:19:22.358Z,17.38
2023-03-11T20:21:48.934Z,14.35
2023-03-11T20:24:15.306Z,13.15
2023-03-11T20:26:41.794Z,6.75
2023-03-11T20:29:08.362Z,13.45
2023-03-11T20:31:36.362Z,13.95
2023-03-11T20:34:03.004Z,8.02
2023-03-11T20:36:30.760Z,9.23
2023-03-11T20:38:57.248Z,7.72
2023-03-11T20:41:24.805Z,7.25
2023-03-11T20:43:52.016Z,11.90
2023-03-11T20:46:18.772Z,6.57
2023-03-11T20:48:45.463Z,6.22
2023-03-11T20:51:13.432Z,8.02
2023-03-11T20:53:39.908Z,9.30
2023-03-11T20:56:10.451Z,8.48
2023-03-11T20:58:37.345Z,8.52
2023-03-11T21:01:12.916Z,10.45
2023-03-11T21:03:39.457Z,7.80
2023-03-11T21:06:12.332Z,11.07
2023-03-11T21:08:38.756Z,8.80
2023-03-11T21:11:05.119Z,5.43
2023-03-11T21:13:33.238Z,8.27
2023-03-11T21:15:59.747Z,9.05
2023-03-11T21:18:26.354Z,8.15
2023-03-11T21:20:52.858Z,7.78
2023-03-11T21:23:19.393Z,14.45
2023-03-11T21:25:45.793Z,4.88
2023-03-11T21:28:13.466Z,6.18
2023-03-11T21:30:41.549Z,10.52
2023-03-11T21:33:08.336Z,6.78
2023-03-11T21:35:34.734Z,8.70
2023-03-11T21:38:01.438Z,8.90
2023-03-11T21:40:27.941Z,4.68
2023-03-11T21:42:54.286Z,4.80
2023-03-11T21:45:20.834Z,5.85
2023-03-11T21:47:47.191Z,5.97
2023-03-11T21:50:13.791Z,9.32
2023-03-11T21:52:40.367Z,5.63
2023-03-11T21:55:06.844Z,7.85
2023-03-11T21:57:33.212Z,5.25
2023-03-11T21:59:59.642Z,6.85
2023-03-11T22:02:26.124Z,8.13
2023-03-11T22:04:52.600Z,5.70
2023-03-11T22:07:19.165Z,5.97
2023-03-11T22:09:45.770Z,7.68
2023-03-11T22:12:12.292Z,4.20
2023-03-11T22:14:38.909Z,6.65
2023-03-11T22:17:05.451Z,7.93
2023-03-11T22:19:31.913Z,3.72
2023-03-11T22:21:58.319Z,6.47
2023-03-11T22:24:24.858Z,7.75
2023-03-11T22:26:51.494Z,5.10
2023-03-11T22:29:18.106Z,5.78
2023-03-11T22:31:44.816Z,10.98
2023-03-11T22:34:11.259Z,5.72
2023-03-11T22:36:37.653Z,8.10
2023-03-11T22:39:04.998Z,11.10
2023-03-11T22:41:31.851Z,8.73
2023-03-11T22:43:58.484Z,4.00
2023-03-11T22:46:25.666Z,7.53
2023-03-11T22:48:52.207Z,5.28
2023-03-11T22:51:18.647Z,8.27
2023-03-11T22:53:45.176Z,6.60
2023-03-11T22:56:13.184Z,9.73
2023-03-11T22:58:39.980Z,5.05
2023-03-11T23:01:06.669Z,5.70
2023-03-11T23:03:33.847Z,6.97
2023-03-11T23:06:00.976Z,4.32
2023-03-11T23:08:27.369Z,4.65
2023-03-11T23:10:53.905Z,4.82
2023-03-11T23:13:20.318Z,5.13
2023-03-11T23:15:47.272Z,5.57
2023-03-11T23:18:14.685Z,4.30
2023-03-11T23:20:41.931Z,2.75
2023-03-11T23:23:09.143Z,5.40
2023-03-11T23:25:36.251Z,7.07
2023-03-11T23:28:03.490Z,5.20
2023-03-11T23:30:30.018Z,9.73
2023-03-11T23:32:57.298Z,3.80
2023-03-11T23:35:24.023Z,5.28
2023-03-11T23:37:50.940Z,5.88
2023-03-11T23:40:17.789Z,5.22
2023-03-11T23:42:44.160Z,8.38
2023-03-11T23:45:10.948Z,4.35
2023-03-11T23:47:37.343Z,8.85
2023-03-11T23:50:03.866Z,4.78
2023-03-11T23:52:30.216Z,9.07
2023-03-11T23:54:56.741Z,4.65
2023-03-11T23:57:23.155Z,9.32
2023-03-11T23:59:49.547Z,5.07
